Time;durP1;ratioP1;P1;durP2;ratioP2;P2;SDS_P1;SDS_P2;PMS_P1;PMS_P2;Temp;Humidity;BMP_temperature;BMP_pressure;BME280_temperature;BME280_humidity;BME280_pressure;Samples;Min_cycle;Max_cycle;Signal;HPM_P1;HPM_P2
2023/01/18 00:00:51;;;;;;;37.30;27.30;;;;;;;2.52;100.00;96299.73;109512;1252;59836;-73
2023/01/18 00:03:24;;;;;;;36.30;27.40;;;;;;;2.52;100.00;96290.14;109408;1252;64638;-73
2023/01/18 00:05:50;;;;;;;40.10;28.70;;;;;;;2.50;100.00;96280.62;109440;1252;58978;-74
2023/01/18 00:08:17;;;;;;;36.70;27.80;;;;;;;2.50;100.00;96272.58;109519;1252;59099;-73
2023/01/18 00:10:44;;;;;;;35.50;27.30;;;;;;;2.50;100.00;96268.02;109483;1252;58955;-73
2023/01/18 00:13:11;;;;;;;42.50;29.10;;;;;;;2.49;100.00;96273.34;109308;1252;58945;-73
2023/01/18 00:15:38;;;;;;;36.30;26.70;;;;;;;2.47;100.00;96274.54;109348;1251;64814;-73
2023/01/18 00:18:04;;;;;;;39.10;28.50;;;;;;;2.45;100.00;96275.91;109398;1251;60232;-73
2023/01/18 00:20:31;;;;;;;39.00;30.10;;;;;;;2.44;100.00;96274.63;109358;1252;62478;-73
2023/01/18 00:23:00;;;;;;;37.00;29.50;;;;;;;2.44;100.00;96281.50;109466;1252;59218;-73
2023/01/18 00:25:28;;;;;;;37.00;26.90;;;;;;;2.45;100.00;96285.59;109391;1251;59011;-72
2023/01/18 00:27:55;;;;;;;41.40;30.50;;;;;;;2.44;100.00;96283.17;109514;1252;65755;-73
2023/01/18 00:30:24;;;;;;;43.90;30.80;;;;;;;2.44;100.00;96278.67;109390;1252;60148;-73
2023/01/18 00:32:56;;;;;;;38.50;29.30;;;;;;;2.43;100.00;96276.63;109269;1252;64063;-73
2023/01/18 00:35:24;;;;;;;35.80;26.20;;;;;;;2.43;100.00;96274.90;109434;1252;59475;-73
2023/01/18 00:37:51;;;;;;;36.00;27.70;;;;;;;2.41;100.00;96267.60;109377;1253;59913;-73
2023/01/18 00:40:21;;;;;;;33.90;27.00;;;;;;;2.40;100.00;96261.42;109438;1252;65071;-73
2023/01/18 00:45:33;;;;;;;29.00;21.40;;;;;;;2.37;100.00;96255.19;109482;1252;64061;-74
2023/01/18 00:48:01;;;;;;;26.20;19.30;;;;;;;2.32;100.00;96257.98;109444;1252;59027;-73
2023/01/18 00:50:27;;;;;;;27.30;19.00;;;;;;;2.28;100.00;96255.66;109463;1251;59022;-72
2023/01/18 00:52:57;;;;;;;30.60;22.40;;;;;;;2.24;100.00;96255.64;109306;1253;66111;-73
2023/01/18 00:55:23;;;;;;;29.10;21.20;;;;;;;2.22;100.00;96256.73;109458;1253;58949;-73
2023/01/18 00:57:50;;;;;;;27.80;22.10;;;;;;;2.19;100.00;96259.16;109416;1253;63827;-72
2023/01/18 01:00:17;;;;;;;25.90;19.50;;;;;;;2.18;100.00;96261.05;109440;1252;58998;-73
2023/01/18 01:02:44;;;;;;;26.90;20.00;;;;;;;2.14;100.00;96258.48;109514;1252;58983;-72
2023/01/18 01:08:02;;;;;;;24.80;18.60;;;;;;;2.06;100.00;96243.59;109260;1254;60169;-71
2023/01/18 01:10:29;;;;;;;29.40;21.80;;;;;;;2.03;100.00;96236.42;109258;1254;64102;-71
2023/01/18 01:26:40;;;;;;;21.30;16.50;;;;;;;1.84;100.00;96251.23;109233;1254;59015;-71
2023/01/18 01:29:06;;;;;;;20.10;14.60;;;;;;;1.78;100.00;96242.38;109260;1255;59026;-72
2023/01/18 01:31:32;;;;;;;20.70;16.70;;;;;;;1.72;100.00;96244.02;109284;1254;59111;-72
2023/01/18 01:33:59;;;;;;;21.60;17.10;;;;;;;1.69;100.00;96241.64;109259;1254;59087;-72
2023/01/18 01:36:27;;;;;;;20.60;15.90;;;;;;;1.66;100.00;96236.12;109249;1254;59026;-71
2023/01/18 01:38:54;;;;;;;22.60;16.60;;;;;;;1.62;100.00;96235.52;109225;1254;58968;-73
2023/01/18 01:41:27;;;;;;;23.60;16.60;;;;;;;1.58;100.00;96224.83;109252;1254;58981;-71
2023/01/18 01:44:26;;;;;;;20.00;15.70;;;;;;;1.56;100.00;96221.66;109073;1254;65044;-71
2023/01/18 01:46:59;;;;;;;22.00;17.30;;;;;;;1.52;100.00;96216.27;108888;1259;60304;-71
2023/01/18 01:49:27;;;;;;;24.30;17.50;;;;;;;1.52;100.00;96205.98;108968;1259;64064;-71
2023/01/18 01:51:58;;;;;;;21.50;16.50;;;;;;;1.52;100.00;96201.27;108911;1259;58998;-71
2023/01/18 01:54:39;;;;;;;22.60;18.70;;;;;;;1.51;100.00;96199.22;108885;1258;59019;-71
2023/01/18 01:57:18;;;;;;;22.40;17.90;;;;;;;1.52;100.00;96202.70;108960;1258;64500;-71
2023/01/18 02:00:10;;;;;;;22.90;17.10;;;;;;;1.52;100.00;96212.15;109013;1258;59358;-71
2023/01/18 02:02:39;;;;;;;23.20;18.40;;;;;;;1.51;100.00;96224.10;108726;1264;64105;-71
2023/01/18 02:05:08;;;;;;;20.60;16.90;;;;;;;1.52;100.00;96224.20;108748;1264;58960;-72
2023/01/18 02:07:34;;;;;;;25.70;19.10;;;;;;;1.52;100.00;96225.23;108498;1263;59885;-72
2023/01/18 02:10:02;;;;;;;23.00;18.90;;;;;;;1.52;100.00;96220.83;108695;1263;66116;-71
2023/01/18 02:12:29;;;;;;;18.20;15.40;;;;;;;1.52;100.00;96219.45;108707;1265;60103;-72
2023/01/18 02:14:58;;;;;;;19.30;15.80;;;;;;;1.51;100.00;96215.52;108640;1263;64352;-70
2023/01/18 02:17:39;;;;;;;21.60;17.80;;;;;;;1.50;100.00;96211.36;108697;1263;59050;-71
2023/01/18 02:20:27;;;;;;;19.70;17.50;;;;;;;1.51;100.00;96202.78;107996;1263;1002899;-72
2023/01/18 02:23:44;;;;;;;21.20;17.10;;;;;;;1.50;100.00;96197.55;108735;1263;64889;-71
2023/01/18 02:26:44;;;;;;;18.70;16.20;;;;;;;1.52;100.00;96199.17;108503;1267;60198;-71
2023/01/18 02:29:17;;;;;;;;;;;;;;;1.53;100.00;96191.95;108526;1266;62869;-72
2023/01/18 02:32:13;;;;;;;17.20;14.00;;;;;;;1.51;100.00;96180.38;108418;1266;59015;-72
2023/01/18 02:34:43;;;;;;;16.10;14.10;;;;;;;1.48;100.00;96174.94;108083;1271;59151;-71
2023/01/18 02:37:47;;;;;;;14.90;12.70;;;;;;;1.47;100.00;96177.54;108076;1271;66153;-71
2023/01/18 02:40:26;;;;;;;15.50;13.20;;;;;;;1.46;100.00;96181.48;107813;1272;60276;-71
2023/01/18 02:48:34;;;;;;;14.90;11.30;;;;;;;1.45;100.00;96196.54;107911;1272;58972;-72
2023/01/18 02:51:01;;;;;;;12.90;11.60;;;;;;;1.47;100.00;96198.70;107841;1273;66182;-72
2023/01/18 02:53:29;;;;;;;13.20;10.80;;;;;;;1.48;100.00;96208.23;107995;1271;60525;-71
2023/01/18 02:56:06;;;;;;;11.20;9.90;;;;;;;1.51;100.00;96210.65;107946;1267;64194;-71
2023/01/18 02:58:39;;;;;;;13.30;10.50;;;;;;;1.51;100.00;96215.35;108407;1267;59005;-71
2023/01/18 03:01:33;;;;;;;14.30;12.40;;;;;;;1.51;100.00;96215.02;108527;1267;58958;-72
2023/01/18 03:04:05;;;;;;;11.40;10.30;;;;;;;1.53;100.00;96217.83;108497;1267;66136;-72
2023/01/18 03:06:32;;;;;;;12.90;11.40;;;;;;;1.55;100.00;96221.72;108457;1267;60229;-71
2023/01/18 03:08:59;;;;;;;10.50;9.10;;;;;;;1.58;100.00;96224.86;108517;1267;62847;-71
2023/01/18 03:11:43;;;;;;;11.20;10.10;;;;;;;1.58;100.00;96221.66;108600;1258;58974;-70
2023/01/18 03:14:48;;;;;;;13.30;11.40;;;;;;;1.59;100.00;96220.19;108935;1258;59048;-71
2023/01/18 03:17:40;;;;;;;11.80;10.60;;;;;;;1.61;100.00;96219.69;108765;1260;66120;-71
2023/01/18 03:20:13;;;;;;;10.60;9.20;;;;;;;1.63;100.00;96214.98;108708;1260;60186;-72
2023/01/18 03:25:53;;;;;;;9.80;8.80;;;;;;;1.61;100.00;96201.48;108823;1261;59143;-72
2023/01/18 03:34:29;;;;;;;10.20;9.20;;;;;;;1.57;100.00;96194.06;108878;1260;60254;-72
2023/01/18 03:36:58;;;;;;;10.40;9.30;;;;;;;1.54;100.00;96187.80;108784;1261;64135;-73
2023/01/18 03:39:30;;;;;;;9.50;8.50;;;;;;;1.52;100.00;96186.36;108790;1260;59053;-72
2023/01/18 03:42:03;;;;;;;10.70;9.70;;;;;;;1.51;100.00;96176.15;108844;1260;59075;-71
2023/01/18 03:44:36;;;;;;;12.50;10.60;;;;;;;1.50;100.00;96158.95;108827;1260;66126;-72
2023/01/18 03:47:04;;;;;;;11.40;10.30;;;;;;;1.48;100.00;96142.97;108818;1261;59040;-71
2023/01/18 03:49:33;;;;;;;11.70;10.10;;;;;;;1.47;100.00;96125.95;108847;1260;64306;-72
2023/01/18 03:52:29;;;;;;;13.00;10.20;;;;;;;1.46;100.00;96118.63;108867;1259;59038;-72
2023/01/18 03:55:04;;;;;;;9.50;8.40;;;;;;;1.45;100.00;96110.17;109253;1254;59038;-72
2023/01/18 03:57:43;;;;;;;9.30;8.40;;;;;;;1.43;100.00;96102.98;109275;1254;64885;-72
2023/01/18 04:00:12;;;;;;;8.90;8.10;;;;;;;1.41;100.00;96098.02;109447;1253;60379;-71
2023/01/18 04:02:42;;;;;;;7.50;6.60;;;;;;;1.40;100.00;96110.87;109384;1254;64120;-72
2023/01/18 04:05:09;;;;;;;8.60;7.10;;;;;;;1.42;100.00;96140.64;109354;1254;59302;-73
2023/01/18 04:07:35;;;;;;;7.80;6.20;;;;;;;1.43;100.00;96146.17;109239;1256;58910;-72
2023/01/18 04:10:02;;;;;;;9.30;8.20;;;;;;;1.45;100.00;96138.34;109491;1254;59630;-72
2023/01/18 04:12:30;;;;;;;10.70;9.60;;;;;;;1.45;100.00;96136.35;109433;1253;59064;-72
2023/01/18 04:14:57;;;;;;;13.50;12.20;;;;;;;1.45;100.00;96137.06;109444;1253;62799;-72
2023/01/18 04:17:23;;;;;;;14.30;13.00;;;;;;;1.46;100.00;96132.66;109422;1254;58979;-72
2023/01/18 04:19:50;;;;;;;15.10;13.60;;;;;;;1.46;100.00;96132.43;109407;1254;59097;-72
2023/01/18 04:22:16;;;;;;;12.70;11.40;;;;;;;1.47;100.00;96123.63;109431;1254;65784;-72
2023/01/18 04:24:43;;;;;;;13.00;11.70;;;;;;;1.46;100.00;96114.99;109448;1254;58945;-72
2023/01/18 04:27:10;;;;;;;12.80;11.30;;;;;;;1.44;100.00;96120.88;109418;1254;64086;-73
2023/01/18 04:29:36;;;;;;;13.50;12.20;;;;;;;1.43;100.00;96124.08;109387;1253;59018;-71
2023/01/18 04:32:04;;;;;;;14.20;12.70;;;;;;;1.44;100.00;96119.83;109396;1254;58888;-72
2023/01/18 04:34:31;;;;;;;14.10;12.70;;;;;;;1.44;100.00;96116.84;109418;1254;66066;-72
2023/01/18 04:36:58;;;;;;;13.00;11.70;;;;;;;1.44;100.00;96117.70;109336;1254;60054;-73
2023/01/18 04:39:25;;;;;;;14.40;13.00;;;;;;;1.46;100.00;96112.87;109393;1254;64064;-72
2023/01/18 04:41:51;;;;;;;14.40;12.90;;;;;;;1.48;100.00;96117.80;109407;1253;59024;-71
2023/01/18 04:44:18;;;;;;;15.40;13.70;;;;;;;1.49;100.00;96115.98;109468;1254;59046;-72
2023/01/18 04:46:46;;;;;;;15.90;13.10;;;;;;;1.49;100.00;96110.51;109222;1256;64785;-73
2023/01/18 04:49:15;;;;;;;15.20;13.50;;;;;;;1.49;100.00;96117.02;109431;1254;59268;-72
2023/01/18 04:51:43;;;;;;;14.00;12.00;;;;;;;1.50;100.00;96136.89;109253;1254;62801;-71
2023/01/18 04:54:13;;;;;;;17.00;14.20;;;;;;;1.50;100.00;96141.19;109263;1253;59179;-72
2023/01/18 04:56:39;;;;;;;20.20;18.00;;;;;;;1.52;100.00;96129.00;109471;1253;59025;-72
2023/01/18 04:59:06;;;;;;;19.60;17.60;;;;;;;1.52;100.00;96114.46;109496;1252;58967;-72
2023/01/18 05:01:32;;;;;;;19.20;15.90;;;;;;;1.52;100.00;96100.13;109511;1253;58967;-72
2023/01/18 05:03:59;;;;;;;18.10;15.70;;;;;;;1.53;100.00;96107.63;109462;1253;59364;-72
2023/01/18 05:06:26;;;;;;;20.00;17.60;;;;;;;1.53;100.00;96113.19;109450;1253;58984;-72
2023/01/18 05:08:52;;;;;;;25.90;22.70;;;;;;;1.55;100.00;96105.70;109460;1253;59137;-72
2023/01/18 05:11:22;;;;;;;26.10;23.60;;;;;;;1.57;100.00;96104.53;109474;1253;58970;-72
2023/01/18 05:13:48;;;;;;;28.20;23.50;;;;;;;1.57;100.00;96109.76;109469;1253;60212;-72
2023/01/18 05:16:18;;;;;;;25.60;22.70;;;;;;;1.58;100.00;96114.39;109457;1253;62840;-72
2023/01/18 05:18:45;;;;;;;21.00;18.70;;;;;;;1.59;100.00;96126.61;109235;1253;58993;-71
2023/01/18 05:21:12;;;;;;;14.10;12.60;;;;;;;1.59;100.00;96140.93;109371;1253;58935;-72
2023/01/18 05:23:39;;;;;;;15.40;12.40;;;;;;;1.60;100.00;96144.52;109272;1253;66194;-71
2023/01/18 05:26:13;;;;;;;14.40;12.80;;;;;;;1.60;100.00;96146.05;109507;1253;60263;-71
2023/01/18 05:28:40;;;;;;;19.30;15.20;;;;;;;1.61;100.00;96150.23;109418;1253;64063;-72
2023/01/18 05:31:07;;;;;;;15.10;13.60;;;;;;;1.62;100.00;96160.46;109502;1253;59230;-71
2023/01/18 05:33:33;;;;;;;15.00;13.50;;;;;;;1.63;100.00;96166.14;109444;1253;59103;-72
2023/01/18 05:36:00;;;;;;;13.00;11.50;;;;;;;1.63;100.00;96157.05;109463;1253;59600;-72
2023/01/18 05:38:26;;;;;;;16.70;14.20;;;;;;;1.62;100.00;96152.56;109452;1253;60119;-72
2023/01/18 05:40:53;;;;;;;14.90;13.20;;;;;;;1.62;100.00;96152.61;109453;1253;63741;-72
2023/01/18 05:43:22;;;;;;;15.10;13.60;;;;;;;1.62;100.00;96154.53;109493;1252;59003;-71
2023/01/18 05:45:48;;;;;;;15.10;13.40;;;;;;;1.62;100.00;96159.63;109213;1253;59063;-72
2023/01/18 05:48:15;;;;;;;16.60;14.40;;;;;;;1.61;100.00;96169.63;109477;1253;59041;-72
2023/01/18 05:50:43;;;;;;;16.50;14.50;;;;;;;1.61;100.00;96162.77;109281;1252;60408;-72
2023/01/18 05:53:12;;;;;;;16.90;15.10;;;;;;;1.62;100.00;96156.60;109505;1253;62974;-71
2023/01/18 05:55:39;;;;;;;17.10;14.20;;;;;;;1.62;100.00;96157.63;109231;1253;59033;-72
2023/01/18 05:58:06;;;;;;;20.30;16.00;;;;;;;1.63;100.00;96156.67;109497;1252;58845;-72
2023/01/18 06:00:33;;;;;;;20.30;16.40;;;;;;;1.64;100.00;96152.98;109449;1253;64448;-72
2023/01/18 06:03:00;;;;;;;21.60;19.40;;;;;;;1.64;100.00;96146.70;109483;1253;59002;-72
2023/01/18 06:05:28;;;;;;;18.60;16.60;;;;;;;1.63;100.00;96142.19;109457;1253;62617;-73
2023/01/18 06:07:54;;;;;;;21.50;17.20;;;;;;;1.62;100.00;96140.19;109308;1253;59102;-72
2023/01/18 06:10:21;;;;;;;23.30;18.70;;;;;;;1.60;100.00;96141.70;109492;1253;59022;-72
2023/01/18 06:12:47;;;;;;;21.50;16.80;;;;;;;1.58;100.00;96140.85;109227;1252;64802;-72
2023/01/18 06:15:14;;;;;;;24.40;17.30;;;;;;;1.56;100.00;96140.96;109459;1253;58940;-72
2023/01/18 06:17:43;;;;;;;26.90;18.30;;;;;;;1.54;100.00;96141.77;109448;1253;62610;-73
2023/01/18 06:20:11;;;;;;;24.60;16.90;;;;;;;1.52;100.00;96138.44;109450;1253;59120;-73
2023/01/18 06:22:37;;;;;;;23.30;16.80;;;;;;;1.51;100.00;96134.73;109421;1253;59053;-72
2023/01/18 06:25:04;;;;;;;21.60;17.60;;;;;;;1.51;100.00;96128.22;109408;1253;66180;-72
2023/01/18 06:27:31;;;;;;;22.50;16.30;;;;;;;1.52;100.00;96132.84;109498;1253;60114;-72
2023/01/18 06:29:57;;;;;;;19.60;14.70;;;;;;;1.51;100.00;96134.86;109419;1253;64063;-72
2023/01/18 06:32:24;;;;;;;22.30;15.90;;;;;;;1.50;100.00;96132.50;109479;1253;59188;-73
2023/01/18 06:34:50;;;;;;;20.90;15.30;;;;;;;1.47;100.00;96136.75;109443;1253;58986;-72
2023/01/18 06:37:17;;;;;;;25.40;18.80;;;;;;;1.45;100.00;96144.39;109474;1252;59102;-72
2023/01/18 06:39:43;;;;;;;22.90;17.00;;;;;;;1.45;100.00;96148.27;109430;1253;59398;-72
2023/01/18 06:42:09;;;;;;;24.90;15.40;;;;;;;1.46;100.00;96147.30;109459;1253;59803;-72
2023/01/18 06:44:36;;;;;;;21.20;14.60;;;;;;;1.47;100.00;96151.96;109475;1253;58914;-72
2023/01/18 06:47:02;;;;;;;21.60;14.80;;;;;;;1.48;100.00;96159.08;109470;1256;59027;-73
2023/01/18 06:49:29;;;;;;;23.30;15.60;;;;;;;1.50;100.00;96164.86;109458;1253;58972;-73
2023/01/18 06:51:56;;;;;;;24.90;15.40;;;;;;;1.52;100.00;96168.02;109481;1253;59086;-73
2023/01/18 06:54:22;;;;;;;28.50;18.20;;;;;;;1.54;100.00;96172.11;109296;1253;63063;-73
2023/01/18 06:56:49;;;;;;;25.20;15.90;;;;;;;1.54;100.00;96173.98;109478;1253;59049;-72
2023/01/18 06:59:15;;;;;;;23.70;15.50;;;;;;;1.54;100.00;96175.56;109413;1253;59549;-72
2023/01/18 07:01:42;;;;;;;24.40;16.00;;;;;;;1.56;100.00;96176.13;109488;1253;66037;-71
2023/01/18 07:04:09;;;;;;;29.20;18.40;;;;;;;1.58;100.00;96176.73;109486;1253;58976;-73
2023/01/18 07:06:35;;;;;;;37.60;25.40;;;;;;;1.58;100.00;96179.83;109296;1253;64195;-72
2023/01/18 07:09:02;;;;;;;38.60;27.90;;;;;;;1.60;100.00;96185.98;109422;1253;58948;-73
2023/01/18 07:11:30;;;;;;;43.80;24.90;;;;;;;1.63;100.00;96190.84;109470;1256;58958;-72
2023/01/18 07:13:56;;;;;;;39.30;23.50;;;;;;;1.65;100.00;96197.86;109190;1253;66056;-72
2023/01/18 07:16:23;;;;;;;36.00;21.50;;;;;;;1.68;100.00;96199.91;109496;1253;59021;-71
2023/01/18 07:18:49;;;;;;;26.80;17.10;;;;;;;1.71;100.00;96203.36;109483;1253;62927;-72
2023/01/18 07:21:18;;;;;;;36.90;22.20;;;;;;;1.71;100.00;96202.45;109403;1253;58997;-72
2023/01/18 07:23:45;;;;;;;31.90;20.20;;;;;;;1.72;100.00;96205.23;109460;1253;58994;-73
2023/01/18 07:26:15;;;;;;;30.60;18.60;;;;;;;1.74;100.00;96205.54;109226;1253;64800;-72
2023/01/18 07:28:44;;;;;;;30.80;17.10;;;;;;;1.77;100.00;96202.06;109481;1252;59087;-73
2023/01/18 07:31:10;;;;;;;34.30;20.00;;;;;;;1.79;100.00;96194.35;109244;1253;64055;-72
2023/01/18 07:33:37;;;;;;;40.90;21.20;;;;;;;1.82;100.00;96188.52;109435;1253;59391;-72
2023/01/18 07:36:05;;;;;;;35.60;19.30;;;;;;;1.83;100.00;96188.58;109251;1253;59007;-72
2023/01/18 07:38:32;;;;;;;37.80;20.50;;;;;;;1.85;100.00;96187.25;109465;1253;65021;-73
2023/01/18 07:41:01;;;;;;;33.30;18.80;;;;;;;1.87;100.00;96184.45;109465;1253;59164;-74
2023/01/18 07:43:30;;;;;;;31.50;18.70;;;;;;;1.90;100.00;96183.00;109201;1253;64050;-75
2023/01/18 07:45:57;;;;;;;47.60;26.40;;;;;;;1.93;100.00;96175.02;109441;1253;58962;-75
2023/01/18 07:48:25;;;;;;;51.90;28.80;;;;;;;1.94;100.00;96177.89;109491;1253;59079;-76
2023/01/18 07:50:56;;;;;;;40.10;20.60;;;;;;;1.97;100.00;96184.87;109437;1253;65016;-75
2023/01/18 07:53:24;;;;;;;70.70;46.70;;;;;;;2.00;100.00;96187.29;109427;1253;59035;-74
2023/01/18 07:55:51;;;;;;;49.50;37.20;;;;;;;2.02;100.00;96182.59;109442;1253;62879;-74
2023/01/18 07:58:18;;;;;;;62.60;44.90;;;;;;;2.02;100.00;96185.19;109442;1253;59040;-75
2023/01/18 08:00:46;;;;;;;42.80;34.70;;;;;;;2.02;100.00;96185.71;109473;1253;58953;-76
2023/01/18 08:03:15;;;;;;;35.30;22.70;;;;;;;2.04;100.00;96193.15;109386;1253;151917;-75
2023/01/18 08:05:43;;;;;;;36.60;19.70;;;;;;;2.06;100.00;96197.71;109247;1253;59867;-73
2023/01/18 08:08:11;;;;;;;35.20;21.20;;;;;;;2.09;100.00;96205.66;109389;1253;62848;-73
2023/01/18 08:10:39;;;;;;;35.00;20.80;;;;;;;2.13;100.00;96199.02;109437;1253;58971;-73
2023/01/18 08:13:08;;;;;;;35.00;21.10;;;;;;;2.19;100.00;96187.51;109292;1253;59233;-73
2023/01/18 08:15:37;;;;;;;32.40;20.90;;;;;;;2.25;100.00;96181.65;109038;1253;64701;-73
2023/01/18 08:18:04;;;;;;;37.90;29.70;;;;;;;2.28;100.00;96171.79;109200;1253;60684;-73
2023/01/18 08:20:31;;;;;;;31.90;22.90;;;;;;;2.33;100.00;96171.79;109459;1253;64077;-73
2023/01/18 08:23:00;;;;;;;27.40;18.50;;;;;;;2.35;100.00;96170.73;109213;1253;59114;-72
2023/01/18 08:25:28;;;;;;;31.10;18.50;;;;;;;2.35;100.00;96179.45;109264;1253;59035;-74
2023/01/18 08:27:59;;;;;;;29.80;19.30;;;;;;;2.36;100.00;96194.64;109404;1256;65783;-73
2023/01/18 08:30:29;;;;;;;29.60;19.00;;;;;;;2.36;100.00;96199.67;109216;1253;60184;-73
2023/01/18 08:32:57;;;;;;;25.80;17.40;;;;;;;2.38;100.00;96200.73;109473;1253;62930;-73
2023/01/18 08:35:25;;;;;;;27.80;17.70;;;;;;;2.42;100.00;96210.84;109426;1254;58997;-73
2023/01/18 08:37:51;;;;;;;24.40;17.80;;;;;;;2.43;100.00;96225.30;109475;1253;59004;-73
2023/01/18 08:40:19;;;;;;;29.00;19.40;;;;;;;2.44;100.00;96234.69;109448;1253;65827;-73
2023/01/18 08:42:45;;;;;;;30.00;18.80;;;;;;;2.44;100.00;96232.88;109494;1253;60115;-73
2023/01/18 08:45:12;;;;;;;28.00;18.10;;;;;;;2.45;100.00;96233.72;109472;1253;59155;-72
2023/01/18 08:47:40;;;;;;;23.40;16.10;;;;;;;2.45;100.00;96239.34;109430;1257;59021;-73
2023/01/18 08:50:07;;;;;;;24.20;15.10;;;;;;;2.46;100.00;96238.86;109441;1253;59214;-72
2023/01/18 08:52:35;;;;;;;23.90;16.50;;;;;;;2.48;100.00;96234.73;109479;1253;64595;-73
2023/01/18 08:55:03;;;;;;;25.30;15.40;;;;;;;2.51;100.00;96237.83;109393;1253;60175;-73
2023/01/18 08:57:29;;;;;;;26.30;18.10;;;;;;;2.51;100.00;96240.19;109416;1253;62869;-73
2023/01/18 08:59:55;;;;;;;28.40;17.60;;;;;;;2.49;100.00;96246.53;109421;1254;58946;-73
2023/01/18 09:02:23;;;;;;;28.10;17.80;;;;;;;2.46;100.00;96248.91;109466;1254;59250;-72
2023/01/18 09:04:51;;;;;;;26.60;18.40;;;;;;;2.44;100.00;96250.63;109324;1253;65750;-72
2023/01/18 09:07:18;;;;;;;25.90;17.90;;;;;;;2.44;100.00;96247.44;109436;1254;60151;-73
2023/01/18 09:09:45;;;;;;;23.90;16.40;;;;;;;2.46;100.00;96238.36;109407;1253;62732;-74
2023/01/18 09:12:12;;;;;;;22.90;16.20;;;;;;;2.47;100.00;96230.91;109304;1253;59028;-75
2023/01/18 09:14:39;;;;;;;27.40;18.90;;;;;;;2.47;100.00;96236.71;109466;1254;59087;-71
2023/01/18 09:17:05;;;;;;;28.50;18.50;;;;;;;2.45;100.00;96247.56;109439;1253;65214;-72
2023/01/18 09:19:32;;;;;;;28.80;19.70;;;;;;;2.43;100.00;96257.52;109447;1253;59023;-72
2023/01/18 09:21:58;;;;;;;35.40;21.20;;;;;;;2.43;100.00;96264.67;109417;1253;59055;-72
2023/01/18 09:24:25;;;;;;;33.70;23.10;;;;;;;2.44;100.00;96267.30;109395;1253;58917;-72
2023/01/18 09:26:52;;;;;;;32.90;21.10;;;;;;;2.42;100.00;96267.73;109437;1253;59723;-71
2023/01/18 09:29:19;;;;;;;35.40;23.20;;;;;;;2.41;100.00;96264.66;109256;1254;64564;-71
2023/01/18 09:31:46;;;;;;;36.10;22.80;;;;;;;2.42;100.00;96266.18;109262;1254;60254;-72
2023/01/18 09:34:14;;;;;;;37.30;23.10;;;;;;;2.45;100.00;96268.77;109413;1253;62872;-72
2023/01/18 09:36:40;;;;;;;41.10;24.30;;;;;;;2.47;100.00;96277.91;109450;1253;59385;-72
2023/01/18 09:39:07;;;;;;;37.30;23.50;;;;;;;2.47;100.00;96275.41;109427;1253;59054;-72
2023/01/18 09:41:36;;;;;;;40.50;25.50;;;;;;;2.46;100.00;96276.57;109293;1253;66302;-72
2023/01/18 09:44:34;;;;;;;37.60;24.70;;;;;;;2.48;100.00;96282.36;109095;1257;60205;-72
2023/01/18 09:47:06;;;;;;;35.40;22.60;;;;;;;2.52;100.00;96279.05;108565;1264;62674;-73
2023/01/18 09:49:41;;;;;;;37.00;22.90;;;;;;;2.54;100.00;96277.50;108601;1264;59013;-73
2023/01/18 09:52:23;;;;;;;32.80;21.30;;;;;;;2.55;100.00;96289.35;108503;1264;59003;-72
2023/01/18 09:55:15;;;;;;;36.40;24.00;;;;;;;2.54;100.00;96302.58;108616;1269;66060;-74
2023/01/18 09:57:54;;;;;;;38.00;23.90;;;;;;;2.55;100.00;96303.73;108634;1263;60194;-73
2023/01/18 10:00:25;;;;;;;32.30;21.20;;;;;;;2.59;100.00;96311.46;108585;1264;64055;-72
2023/01/18 10:02:59;;;;;;;39.40;24.90;;;;;;;2.67;100.00;96321.34;108609;1267;59035;-73
2023/01/18 10:05:30;;;;;;;36.80;23.40;;;;;;;2.77;100.00;96328.82;108610;1263;58997;-73
2023/01/18 10:08:06;;;;;;;34.00;21.90;;;;;;;2.86;100.00;96331.63;108384;1269;66200;-73
2023/01/18 10:10:37;;;;;;;28.20;21.80;;;;;;;2.90;100.00;96336.77;108727;1263;60193;-72
2023/01/18 10:13:32;;;;;;;27.80;20.70;;;;;;;2.92;100.00;96340.45;108579;1264;63780;-72
2023/01/18 10:15:58;;;;;;;31.60;21.50;;;;;;;2.93;100.00;96343.03;108896;1260;59044;-72
2023/01/18 10:18:25;;;;;;;25.90;19.00;;;;;;;2.93;100.00;96345.27;108908;1260;59080;-73
2023/01/18 10:21:03;;;;;;;26.00;19.50;;;;;;;2.96;100.00;96347.53;108831;1260;64729;-73
2023/01/18 10:23:52;;;;;;;27.40;21.10;;;;;;;2.99;100.00;96355.02;109096;1254;59103;-73
2023/01/18 10:26:27;;;;;;;23.30;18.60;;;;;;;3.02;100.00;96351.55;109525;1254;62876;-73
2023/01/18 10:29:05;;;;;;;23.20;19.60;;;;;;;3.06;100.00;96354.72;109524;1253;59317;-73
2023/01/18 10:31:54;;;;;;;24.30;18.90;;;;;;;3.11;100.00;96362.46;109482;1254;59009;-73
2023/01/18 10:34:31;;;;;;;21.90;18.40;;;;;;;3.15;100.00;96367.07;109551;1253;66032;-73
2023/01/18 10:37:11;;;;;;;24.80;19.60;;;;;;;3.13;100.00;96369.10;109482;1254;60127;-72
2023/01/18 10:39:42;;;;;;;24.20;19.30;;;;;;;3.08;100.00;96367.40;109518;1253;64249;-74
2023/01/18 10:42:19;;;;;;;24.80;19.10;;;;;;;3.08;100.00;96373.05;109520;1253;59042;-73
2023/01/18 10:44:46;;;;;;;23.70;18.50;;;;;;;3.08;100.00;96378.48;109511;1253;58943;-73
2023/01/18 10:47:17;;;;;;;23.00;20.50;;;;;;;3.05;100.00;96394.28;109559;1253;64844;-72
2023/01/18 10:49:47;;;;;;;26.40;20.60;;;;;;;3.02;100.00;96400.71;109509;1252;59850;-73
2023/01/18 10:52:28;;;;;;;26.60;22.00;;;;;;;2.99;100.00;96405.35;109561;1253;62823;-73
2023/01/18 10:55:02;;;;;;;24.90;20.00;;;;;;;2.97;100.00;96400.58;109532;1253;58952;-74
2023/01/18 10:57:35;;;;;;;20.90;18.30;;;;;;;3.01;100.00;96399.16;109454;1252;59040;-72
2023/01/18 11:00:11;;;;;;;22.20;18.40;;;;;;;3.07;100.00;96397.65;109549;1252;66151;-74
2023/01/18 11:02:38;;;;;;;20.30;18.10;;;;;;;3.09;100.00;96395.21;109528;1252;60124;-73
2023/01/18 11:05:32;;;;;;;20.80;17.00;;;;;;;3.13;100.00;96400.17;109359;1252;64244;-73
2023/01/18 11:08:24;;;;;;;22.30;17.80;;;;;;;3.14;100.00;96403.44;109411;1253;58976;-73
2023/01/18 11:11:00;;;;;;;22.40;18.70;;;;;;;3.11;100.00;96405.23;109586;1254;59052;-73
2023/01/18 11:13:48;;;;;;;22.60;17.50;;;;;;;3.09;100.00;96411.71;109500;1252;66111;-73
2023/01/18 11:16:21;;;;;;;23.20;18.30;;;;;;;3.07;100.00;96416.40;108842;1259;60233;-73
2023/01/18 11:19:12;;;;;;;20.50;18.10;;;;;;;3.09;100.00;96422.80;108890;1260;64042;-72
2023/01/18 11:21:41;;;;;;;22.30;18.70;;;;;;;3.11;100.00;96422.63;108921;1258;59313;-72
2023/01/18 11:24:14;;;;;;;24.50;18.40;;;;;;;3.15;100.00;96418.60;108974;1259;58909;-72
2023/01/18 11:26:54;;;;;;;23.10;18.50;;;;;;;3.19;100.00;96421.45;108943;1260;65017;-72
2023/01/18 11:29:24;;;;;;;23.30;19.70;;;;;;;3.23;100.00;96420.64;108974;1260;59053;-73
2023/01/18 11:31:53;;;;;;;23.90;20.30;;;;;;;3.24;100.00;96426.33;108976;1260;64144;-73
2023/01/18 11:34:26;;;;;;;22.80;17.60;;;;;;;3.21;100.00;96430.03;108951;1260;59126;-72
2023/01/18 11:36:53;;;;;;;22.20;19.10;;;;;;;3.15;100.00;96437.09;108822;1259;59165;-73
2023/01/18 11:39:29;;;;;;;25.70;21.30;;;;;;;3.12;100.00;96444.48;108846;1259;64737;-73
2023/01/18 11:42:12;;;;;;;24.10;20.30;;;;;;;3.14;100.00;96450.45;108983;1259;60145;-72
2023/01/18 11:44:47;;;;;;;25.60;20.80;;;;;;;3.14;100.00;96459.80;108924;1259;62841;-73
2023/01/18 11:47:26;;;;;;;25.70;20.40;;;;;;;3.17;100.00;96466.05;108956;1259;59012;-73
2023/01/18 11:50:05;;;;;;;23.30;20.30;;;;;;;3.17;100.00;96472.00;108914;1259;59089;-73
2023/01/18 11:52:36;;;;;;;24.20;19.80;;;;;;;3.13;100.00;96479.80;108931;1253;65035;-72
2023/01/18 11:55:16;;;;;;;25.50;21.50;;;;;;;3.08;100.00;96485.82;109488;1253;58994;-73
2023/01/18 11:57:43;;;;;;;26.40;20.90;;;;;;;3.05;100.00;96487.97;109385;1253;62858;-73
2023/01/18 12:00:13;;;;;;;26.20;21.40;;;;;;;3.03;100.00;96494.27;109443;1253;58986;-72